Time;durP1;ratioP1;P1;durP2;ratioP2;P2;SDS_P1;SDS_P2;PMS_P1;PMS_P2;Temp;Humidity;BMP_temperature;BMP_pressure;BME280_temperature;BME280_humidity;BME280_pressure;Samples;Min_cycle;Max_cycle;Signal;HPM_P1;HPM_P2
2021/05/28 00:02:05;;;;;;;6.58;6.05;;;;;;;17.85;80.11;100214.15;1748725;80;21100;-88
2021/05/28 00:04:32;;;;;;;7.00;6.33;;;;;;;17.82;80.19;100220.01;1726491;82;21112;-90
2021/05/28 00:06:58;;;;;;;;;;;;;;;17.82;80.27;100225.40;1744743;80;21158;-88
2021/05/28 00:09:24;;;;;;;7.17;6.58;;;;;;;17.80;80.30;100225.33;1748671;80;20429;-87
2021/05/28 00:11:52;;;;;;;7.05;6.65;;;;;;;17.71;80.46;100224.36;1728113;80;21006;-87
2021/05/28 00:14:19;;;;;;;7.28;6.78;;;;;;;17.70;80.66;100224.59;1735430;81;21775;-88
2021/05/28 00:16:45;;;;;;;8.43;7.83;;;;;;;17.70;80.77;100221.36;1721079;82;21629;-87
2021/05/28 00:19:13;;;;;;;7.87;7.20;;;;;;;17.70;80.70;100222.72;1695266;83;21166;-86
2021/05/28 00:21:39;;;;;;;9.18;8.30;;;;;;;17.69;80.66;100227.83;1692384;82;21189;-85
2021/05/28 00:24:07;;;;;;;8.88;8.25;;;;;;;17.65;80.64;100218.59;1692384;81;21139;-86
2021/05/28 00:26:33;;;;;;;8.85;8.28;;;;;;;17.63;80.83;100215.82;1708478;82;21088;-86
2021/05/28 00:28:59;;;;;;;8.38;7.70;;;;;;;17.61;81.02;100209.34;1710458;82;21087;-84
2021/05/28 00:31:25;;;;;;;;;;;;;;;17.60;81.19;100210.92;1690725;83;21142;-85
2021/05/28 00:33:53;;;;;;;8.88;8.33;;;;;;;17.59;81.33;100211.97;1707193;82;20240;-85
2021/05/28 00:36:20;;;;;;;9.55;8.75;;;;;;;17.55;81.57;100209.46;1745731;81;21187;-86
2021/05/28 00:38:46;;;;;;;10.20;9.30;;;;;;;17.55;81.58;100206.77;1712880;82;21087;-84
2021/05/28 00:41:14;;;;;;;10.08;9.38;;;;;;;17.57;81.68;100208.69;1721029;81;21184;-87
2021/05/28 00:43:41;;;;;;;10.08;9.35;;;;;;;17.58;81.70;100206.30;1754155;80;21021;-87
2021/05/28 00:46:07;;;;;;;10.43;9.73;;;;;;;17.59;81.63;100203.88;1716610;79;21104;-84
2021/05/28 00:48:34;;;;;;;9.90;9.25;;;;;;;17.57;81.45;100198.72;1748938;80;21093;-86
2021/05/28 00:51:02;;;;;;;9.33;8.73;;;;;;;17.54;81.44;100201.91;1744797;80;21081;-85
2021/05/28 00:53:29;;;;;;;10.03;9.28;;;;;;;17.51;81.54;100193.75;1720902;80;21138;-87
2021/05/28 00:55:56;;;;;;;10.05;9.35;;;;;;;17.50;81.76;100197.52;1725402;78;20979;-89
2021/05/28 00:58:23;;;;;;;10.70;9.80;;;;;;;17.53;81.93;100196.75;1698735;83;21075;-89
2021/05/28 01:00:51;;;;;;;11.68;10.68;;;;;;;17.55;81.94;100186.02;1712777;81;21059;-88
2021/05/28 01:03:19;;;;;;;10.90;10.10;;;;;;;17.57;81.76;100187.95;1702605;81;22231;-88
2021/05/28 01:05:48;;;;;;;11.25;10.28;;;;;;;17.58;81.63;100181.52;1710159;81;21114;-88
2021/05/28 01:08:15;;;;;;;11.55;10.65;;;;;;;17.59;81.51;100182.32;1714337;81;21172;-86
2021/05/28 01:10:45;;;;;;;12.40;11.40;;;;;;;17.56;81.41;100184.98;1722433;81;21667;-88
2021/05/28 01:13:14;;;;;;;12.15;11.25;;;;;;;17.55;81.39;100191.41;1731638;81;21059;-88
2021/05/28 01:15:41;;;;;;;12.25;11.08;;;;;;;17.56;81.39;100188.20;1747947;81;21167;-88
2021/05/28 01:18:09;;;;;;;12.65;11.35;;;;;;;17.56;81.50;100182.81;1769346;79;20985;-88
2021/05/28 01:20:37;;;;;;;11.35;10.55;;;;;;;17.58;81.44;100187.44;1750633;80;21176;-90
2021/05/28 01:23:05;;;;;;;13.62;12.40;;;;;;;17.60;81.47;100193.41;1735100;80;21131;-88
2021/05/28 01:25:33;;;;;;;13.22;12.13;;;;;;;17.62;81.45;100190.75;1765541;79;21219;-87
2021/05/28 01:28:00;;;;;;;13.35;12.28;;;;;;;17.65;81.19;100182.20;1770757;79;21626;-87
2021/05/28 01:30:29;;;;;;;13.83;12.53;;;;;;;17.68;81.18;100184.40;1771229;80;21478;-88
2021/05/28 01:32:57;;;;;;;12.50;11.43;;;;;;;17.70;81.23;100183.63;1776280;79;21038;-87
2021/05/28 01:35:25;;;;;;;13.25;12.15;;;;;;;17.75;81.21;100182.92;1764839;80;21119;-87
2021/05/28 01:37:54;;;;;;;11.95;10.70;;;;;;;17.80;80.96;100183.03;1745930;81;21050;-87
2021/05/28 01:40:22;;;;;;;12.03;10.95;;;;;;;17.82;80.61;100186.31;1743847;81;21059;-87
2021/05/28 01:42:50;;;;;;;11.18;10.32;;;;;;;17.78;80.49;100180.27;1751402;80;21367;-87
2021/05/28 01:45:18;;;;;;;12.05;10.95;;;;;;;17.75;80.77;100182.92;1750674;81;21063;-87
2021/05/28 01:47:44;;;;;;;11.90;11.00;;;;;;;17.73;80.83;100185.58;1754017;81;21064;-86
2021/05/28 01:50:12;;;;;;;12.70;11.80;;;;;;;17.73;80.98;100188.28;1755580;81;21088;-86
2021/05/28 01:52:39;;;;;;;13.88;12.15;;;;;;;17.68;80.88;100185.75;1745961;80;21651;-85
2021/05/28 01:55:10;;;;;;;14.20;13.03;;;;;;;17.63;81.11;100187.02;1750520;79;21373;-80
2021/05/28 01:57:37;;;;;;;14.33;13.03;;;;;;;17.64;81.26;100186.48;1744612;80;21434;-86
2021/05/28 02:00:08;;;;;;;13.62;12.43;;;;;;;17.64;81.20;100180.55;1750687;78;21123;-79
2021/05/28 02:02:37;;;;;;;13.55;12.35;;;;;;;17.66;81.19;100183.02;1729535;81;21075;-87
2021/05/28 02:05:06;;;;;;;14.50;13.18;;;;;;;17.68;81.25;100188.44;1733896;82;21153;-87
2021/05/28 02:07:32;;;;;;;14.35;13.03;;;;;;;17.70;81.00;100186.32;1710390;82;21753;-87
2021/05/28 02:09:58;;;;;;;;;;;;;;;17.52;80.83;100158.22;1738439;82;21146;-88
2021/05/28 02:12:26;;;;;;;14.20;12.90;;;;;;;16.95;80.81;100066.52;1722744;81;20543;-87
2021/05/28 02:14:57;;;;;;;14.00;12.80;;;;;;;17.63;81.02;100176.73;1726872;82;21283;-88
2021/05/28 02:17:21;;;;;;;13.62;12.63;;;;;;;17.61;81.02;100181.05;1731635;81;21660;-88
2021/05/28 02:19:49;;;;;;;14.78;13.53;;;;;;;17.60;81.05;100174.55;1691285;83;21192;-87
2021/05/28 02:22:16;;;;;;;13.80;12.78;;;;;;;17.61;81.20;100179.70;1711127;81;21175;-87
2021/05/28 02:24:42;;;;;;;14.33;13.05;;;;;;;17.64;81.22;100183.25;1728929;81;21153;-87
2021/05/28 02:27:11;;;;;;;13.40;12.25;;;;;;;17.66;81.22;100183.02;1747209;80;21095;-88
2021/05/28 02:29:38;;;;;;;13.93;12.73;;;;;;;17.66;81.27;100182.47;1754409;79;21079;-88
2021/05/28 02:32:05;;;;;;;;;;;;;;;17.67;81.33;100182.78;1735900;81;21075;-88
2021/05/28 02:34:31;;;;;;;14.18;12.90;;;;;;;17.67;81.43;100184.13;1725908;82;20283;-87
2021/05/28 02:36:57;;;;;;;;;;;;;;;17.64;81.57;100187.83;1732074;81;21069;-88
2021/05/28 02:39:24;;;;;;;15.05;13.83;;;;;;;17.62;81.61;100184.02;1734992;81;20233;-88
2021/05/28 02:41:50;;;;;;;14.55;13.30;;;;;;;17.61;81.89;100180.20;1742836;81;21026;-89
2021/05/28 02:44:16;;;;;;;14.35;12.63;;;;;;;17.65;82.04;100174.62;1732335;82;21103;-89
2021/05/28 02:46:42;;;;;;;;;;;;;;;17.71;81.90;100173.15;1728621;81;21043;-89
2021/05/28 02:49:09;;;;;;;14.03;12.82;;;;;;;17.75;81.73;100167.29;1719852;81;20597;-88
2021/05/28 02:51:35;;;;;;;12.85;11.85;;;;;;;17.71;81.74;100169.64;1738210;81;21740;-87
2021/05/28 02:54:03;;;;;;;;;;;;;;;17.71;81.75;100174.50;1747345;80;21233;-87
2021/05/28 02:56:28;;;;;;;;;;;;;;;17.73;81.81;100172.11;1719305;82;20254;-87
2021/05/28 02:58:55;;;;;;;15.98;14.38;;;;;;;17.68;81.96;100165.53;1719092;82;20198;-85
2021/05/28 03:01:21;;;;;;;16.02;14.70;;;;;;;17.67;81.98;100163.91;1711135;81;21173;-86
2021/05/28 03:03:47;;;;;;;15.63;14.38;;;;;;;17.69;81.73;100160.44;1730296;81;21048;-88
2021/05/28 03:06:13;;;;;;;15.88;14.55;;;;;;;17.74;81.85;100162.41;1723344;81;21086;-88
2021/05/28 03:08:39;;;;;;;;;;;;;;;17.78;81.36;100156.01;1739740;81;21097;-87
2021/05/28 03:11:07;;;;;;;17.02;15.55;;;;;;;17.82;81.16;100155.30;1731422;82;20263;-86
2021/05/28 03:13:34;;;;;;;16.20;14.93;;;;;;;17.79;81.03;100157.66;1748638;78;21061;-88
2021/05/28 03:16:02;;;;;;;17.82;16.23;;;;;;;17.82;81.14;100158.51;1733427;80;21060;-79
2021/05/28 03:18:45;;;;;;;17.27;15.88;;;;;;;17.86;81.08;100161.06;1745066;81;21082;-83
2021/05/28 03:21:14;;;;;;;17.40;15.90;;;;;;;17.90;80.72;100161.68;1739914;81;21059;-81
2021/05/28 03:23:27;;;;;;;17.15;15.72;;;;;;;17.90;80.31;100166.27;1726189;81;21153;-82
2021/05/28 03:25:53;;;;;;;17.10;15.63;;;;;;;17.89;80.23;100161.91;1704846;82;21217;-81
2021/05/28 03:28:19;;;;;;;18.30;16.77;;;;;;;17.88;80.21;100163.80;1723794;81;21069;-81
2021/05/28 03:30:45;;;;;;;18.80;17.27;;;;;;;17.90;80.11;100166.27;1711276;83;21376;-81
2021/05/28 03:33:12;;;;;;;17.62;16.32;;;;;;;17.92;80.12;100170.07;1699828;82;21240;-82
2021/05/28 03:35:38;;;;;;;;;;;;;;;17.92;80.12;100166.03;1728038;80;21127;-82
2021/05/28 03:38:04;;;;;;;19.10;17.45;;;;;;;17.93;80.12;100170.34;1738249;81;20245;-81
2021/05/28 03:40:30;;;;;;;16.73;15.38;;;;;;;17.89;80.05;100168.66;1751177;81;21713;-83
2021/05/28 03:42:56;;;;;;;18.57;17.02;;;;;;;17.92;79.97;100169.53;1730337;81;21536;-82
2021/05/28 03:45:23;;;;;;;19.15;17.48;;;;;;;17.94;79.61;100174.16;1742831;81;21129;-82
2021/05/28 03:47:49;;;;;;;18.82;17.32;;;;;;;17.95;79.52;100165.52;1719687;80;21073;-81
2021/05/28 03:50:17;;;;;;;18.67;17.17;;;;;;;17.97;79.50;100162.05;1730944;80;21046;-81
2021/05/28 03:52:43;;;;;;;;;;;;;;;18.01;79.43;100163.23;1736012;80;21099;-80
2021/05/28 03:55:11;;;;;;;22.35;20.45;;;;;;;18.06;79.25;100170.05;1740647;81;20193;-81
2021/05/28 03:57:37;;;;;;;23.55;21.42;;;;;;;18.03;79.19;100167.31;1746962;80;21056;-80
2021/05/28 04:00:05;;;;;;;23.30;21.30;;;;;;;18.05;79.15;100169.23;1733508;80;21159;-87
2021/05/28 04:05:43;;;;;;;27.73;25.25;;;;;;;18.11;78.99;100170.15;1662638;84;21130;-91
2021/05/28 04:11:19;;;;;;;29.05;26.50;;;;;;;18.16;78.84;100176.15;1636566;82;21162;-79
2021/05/28 04:13:46;;;;;;;31.25;28.42;;;;;;;18.17;78.54;100175.10;1627399;87;21117;-78
2021/05/28 04:16:12;;;;;;;28.52;26.12;;;;;;;18.17;78.54;100175.10;1625186;86;21688;-84
2021/05/28 04:18:38;;;;;;;;;;;;;;;18.17;78.42;100176.45;1634771;86;21054;-85
2021/05/28 04:21:05;;;;;;;28.02;25.65;;;;;;;18.15;78.42;100178.58;1636302;86;20198;-84
2021/05/28 04:23:31;;;;;;;28.70;26.10;;;;;;;18.09;78.67;100181.17;1602652;86;21108;-83
2021/05/28 04:26:00;;;;;;;29.05;26.30;;;;;;;18.07;78.85;100175.74;1590395;87;21280;-85
2021/05/28 04:28:27;;;;;;;29.12;26.60;;;;;;;18.06;79.21;100173.59;1574639;88;21100;-83
2021/05/28 04:30:57;;;;;;;29.42;26.93;;;;;;;18.07;79.37;100182.48;1574919;88;21123;-82
2021/05/28 04:33:24;;;;;;;29.95;27.32;;;;;;;18.10;79.49;100177.94;1603503;84;21193;-85
2021/05/28 04:35:50;;;;;;;31.17;28.38;;;;;;;18.13;79.43;100182.05;1704568;81;21167;-81
2021/05/28 04:38:16;;;;;;;;;;;;;;;18.13;79.21;100182.05;1697505;81;21170;-83
2021/05/28 04:40:43;;;;;;;28.47;25.92;;;;;;;18.15;79.01;100188.02;1663266;84;20267;-82
2021/05/28 04:43:09;;;;;;;27.15;24.85;;;;;;;18.09;79.11;100190.61;1653979;85;21153;-86
2021/05/28 04:45:38;;;;;;;28.10;25.50;;;;;;;18.12;79.29;100188.48;1666314;84;21095;-84
2021/05/28 04:48:04;;;;;;;27.42;25.10;;;;;;;18.20;79.21;100186.23;1650713;85;21384;-86
2021/05/28 04:50:31;;;;;;;25.68;23.42;;;;;;;18.27;78.84;100181.51;1680618;84;22268;-85
2021/05/28 04:52:58;;;;;;;25.02;22.67;;;;;;;18.31;78.58;100181.00;1658588;85;21110;-87
2021/05/28 04:55:26;;;;;;;23.18;21.15;;;;;;;18.31;78.36;100179.14;1662436;83;21053;-84
2021/05/28 04:57:53;;;;;;;21.73;19.65;;;;;;;18.30;78.16;100181.54;1672653;83;21120;-79
2021/05/28 05:00:21;;;;;;;20.25;18.45;;;;;;;18.30;78.04;100180.19;1656795;81;21143;-84
2021/05/28 05:02:47;;;;;;;17.48;16.07;;;;;;;18.31;77.95;100179.14;1677189;83;21028;-85
2021/05/28 05:05:15;;;;;;;18.45;16.90;;;;;;;18.31;77.73;100175.09;1655170;84;21080;-84
2021/05/28 05:07:42;;;;;;;18.23;16.82;;;;;;;18.29;77.69;100176.69;1656932;85;21159;-84
2021/05/28 05:10:11;;;;;;;19.05;17.37;;;;;;;18.27;77.94;100182.86;1653028;83;21724;-84
2021/05/28 05:12:40;;;;;;;18.52;16.87;;;;;;;18.31;78.07;100172.91;1679801;82;21220;-82
2021/05/28 05:15:08;;;;;;;19.40;17.57;;;;;;;18.34;77.94;100174.59;1683599;83;21101;-84
2021/05/28 05:17:34;;;;;;;19.27;17.65;;;;;;;18.38;77.79;100174.92;1680954;83;21099;-84
2021/05/28 05:20:00;;;;;;;20.40;18.52;;;;;;;18.34;77.78;100173.23;1681514;83;21065;-86
2021/05/28 05:22:29;;;;;;;20.12;18.52;;;;;;;18.28;78.11;100172.34;1684946;81;21754;-85
2021/05/28 05:24:56;;;;;;;23.55;20.37;;;;;;;18.25;78.56;100174.19;1680252;83;21178;-86
2021/05/28 05:27:22;;;;;;;19.70;18.07;;;;;;;18.27;78.53;100172.58;1678837;83;21078;-85
2021/05/28 05:29:48;;;;;;;16.48;15.18;;;;;;;18.27;78.45;100163.13;1686682;83;21611;-84
2021/05/28 05:32:14;;;;;;;;;;;;;;;18.34;77.92;100177.83;1688185;83;21745;-87
2021/05/28 05:34:41;;;;;;;18.35;16.75;;;;;;;18.37;77.66;100177.35;1653035;82;20198;-82
2021/05/28 05:37:07;;;;;;;18.30;16.87;;;;;;;18.33;77.47;100175.67;1653588;84;21153;-88
2021/05/28 05:39:34;;;;;;;18.60;17.00;;;;;;;18.29;77.29;100182.62;1645250;85;21126;-86
2021/05/28 05:42:02;;;;;;;18.90;17.35;;;;;;;18.27;77.45;100186.91;1657534;84;21103;-91
2021/05/28 05:44:29;;;;;;;18.90;17.27;;;;;;;18.29;77.49;100180.73;1667616;82;21035;-86
2021/05/28 05:46:56;;;;;;;19.27;17.80;;;;;;;18.32;77.52;100180.77;1646889;85;21654;-89
2021/05/28 05:49:23;;;;;;;18.70;17.10;;;;;;;18.36;77.45;100179.21;1651343;85;21073;-86
2021/05/28 05:51:49;;;;;;;19.00;17.40;;;;;;;18.39;77.35;100174.69;1649575;85;21097;-88
2021/05/28 05:54:15;;;;;;;19.73;18.12;;;;;;;18.44;77.28;100177.98;1645137;85;21073;-86
2021/05/28 05:56:45;;;;;;;20.10;18.50;;;;;;;18.48;77.22;100184.02;1598540;86;21120;-87
2021/05/28 05:59:11;;;;;;;22.35;20.45;;;;;;;18.52;77.72;100179.49;1643313;85;21604;-87
2021/05/28 06:01:39;;;;;;;20.23;18.52;;;;;;;18.54;77.80;100182.77;1648529;85;21131;-89
2021/05/28 06:04:07;;;;;;;20.32;18.67;;;;;;;18.54;78.04;100183.57;1640996;85;21095;-89
2021/05/28 06:06:35;;;;;;;20.20;18.25;;;;;;;18.55;77.89;100179.80;1647685;85;21603;-86
2021/05/28 06:09:06;;;;;;;19.98;18.27;;;;;;;18.58;77.72;100182.02;1637002;85;21053;-88
2021/05/28 06:11:33;;;;;;;20.50;18.73;;;;;;;18.63;77.27;100175.89;1653372;83;21093;-87
2021/05/28 06:13:59;;;;;;;32.45;23.10;;;;;;;18.67;77.00;100179.73;1668851;83;21174;-89
2021/05/28 06:16:29;;;;;;;32.93;25.10;;;;;;;18.71;76.60;100182.77;1676483;83;21149;-89
2021/05/28 06:18:55;;;;;;;22.37;20.10;;;;;;;18.77;76.26;100181.77;1640347;84;21072;-88
2021/05/28 06:21:22;;;;;;;20.15;18.15;;;;;;;18.80;76.39;100182.13;1644983;84;21148;-89
2021/05/28 06:23:49;;;;;;;19.57;17.87;;;;;;;18.78;76.39;100176.13;1606581;83;21177;-87
2021/05/28 06:26:16;;;;;;;21.80;19.52;;;;;;;18.76;76.59;100180.13;1606795;88;21161;-86
2021/05/28 06:28:42;;;;;;;19.60;17.95;;;;;;;18.72;76.60;100181.69;1637502;85;21095;-84
2021/05/28 06:31:12;;;;;;;21.65;19.82;;;;;;;18.67;76.92;100181.89;1630254;85;21126;-86
2021/05/28 06:33:43;;;;;;;20.08;18.15;;;;;;;18.62;77.07;100178.30;1643416;84;21020;-88
2021/05/28 06:36:09;;;;;;;20.27;18.62;;;;;;;18.58;77.44;100182.55;1679908;83;21118;-85
2021/05/28 06:38:37;;;;;;;22.95;21.12;;;;;;;18.56;77.70;100177.94;1660062;82;21038;-86
2021/05/28 06:41:04;;;;;;;20.40;18.60;;;;;;;18.57;77.94;100177.70;1666923;83;21098;-84
2021/05/28 06:43:35;;;;;;;22.30;20.50;;;;;;;18.62;77.92;100174.25;1661577;82;21152;-81
2021/05/28 06:46:04;;;;;;;22.85;20.80;;;;;;;18.68;77.69;100180.00;1674920;83;21165;-83
2021/05/28 06:48:31;;;;;;;21.95;19.95;;;;;;;18.78;77.40;100175.29;1680422;82;21108;-83
2021/05/28 06:50:57;;;;;;;;;;;;;;;18.87;77.18;100171.14;1686460;82;21110;-84
2021/05/28 06:53:23;;;;;;;22.90;20.60;;;;;;;18.94;76.89;100177.20;1687128;82;20185;-84
2021/05/28 06:55:49;;;;;;;25.23;22.67;;;;;;;18.94;76.59;100175.84;1677399;83;21196;-84
2021/05/28 06:58:17;;;;;;;23.00;20.88;;;;;;;19.02;76.12;100174.61;1677555;84;21074;-85
2021/05/28 07:00:45;;;;;;;23.25;20.92;;;;;;;19.15;75.93;100169.39;1682694;83;21054;-85
2021/05/28 07:03:11;;;;;;;23.02;21.12;;;;;;;19.23;75.09;100173.00;1670027;83;21126;-85
2021/05/28 07:05:39;;;;;;;24.67;22.13;;;;;;;19.24;74.50;100177.35;1682678;82;21602;-84
2021/05/28 07:08:05;;;;;;;22.15;20.05;;;;;;;19.19;74.35;100174.06;1707831;82;21080;-84
2021/05/28 07:10:33;;;;;;;25.20;21.37;;;;;;;19.13;73.80;100179.63;1686471;82;21161;-84
2021/05/28 07:13:00;;;;;;;21.95;19.95;;;;;;;19.05;74.13;100177.62;1682023;83;21623;-84
2021/05/28 07:15:27;;;;;;;;;;;;;;;19.02;74.53;100176.80;1687195;82;21110;-89
2021/05/28 07:17:55;;;;;;;31.55;23.02;;;;;;;19.00;74.04;100176.20;1677398;82;20197;-84
2021/05/28 07:20:22;;;;;;;27.75;24.85;;;;;;;18.91;74.17;100174.17;1684727;83;21095;-83
2021/05/28 07:22:48;;;;;;;;;;;;;;;18.87;74.32;100175.20;1688807;83;21076;-84
2021/05/28 07:25:15;;;;;;;26.37;23.15;;;;;;;18.88;74.38;100170.09;1688428;79;20172;-87
2021/05/28 07:27:41;;;;;;;26.80;24.02;;;;;;;18.89;74.72;100168.20;1689161;82;21093;-84
2021/05/28 07:30:09;;;;;;;39.98;29.40;;;;;;;18.98;74.94;100170.77;1682557;83;21063;-86
2021/05/28 07:32:37;;;;;;;31.77;27.75;;;;;;;19.07;74.64;100163.88;1677417;82;21782;-86
2021/05/28 07:35:05;;;;;;;35.43;28.15;;;;;;;19.28;74.25;100166.32;1676269;82;21062;-84
2021/05/28 07:37:31;;;;;;;27.70;24.75;;;;;;;19.46;73.19;100165.21;1674031;82;22250;-84
2021/05/28 07:39:57;;;;;;;24.15;21.87;;;;;;;19.59;73.56;100166.69;1681960;83;21730;-85
2021/05/28 07:42:23;;;;;;;;;;;;;;;19.76;73.81;100161.24;1688470;83;21195;-85
2021/05/28 07:44:51;;;;;;;37.23;26.60;;;;;;;19.93;72.89;100157.94;1662372;84;20614;-86
2021/05/28 07:47:18;;;;;;;28.95;25.27;;;;;;;20.06;72.39;100151.82;1653997;85;21109;-84
2021/05/28 07:49:45;;;;;;;37.28;28.75;;;;;;;20.27;71.60;100150.11;1676072;82;22207;-83
2021/05/28 07:52:12;;;;;;;37.08;26.95;;;;;;;20.37;70.38;100156.98;1675632;82;21106;-85
2021/05/28 07:54:43;;;;;;;28.77;22.32;;;;;;;20.42;69.66;100155.69;1686479;83;21177;-84
2021/05/28 07:57:10;;;;;;;32.45;23.55;;;;;;;20.56;68.11;100150.64;1677729;83;21252;-86
2021/05/28 07:59:37;;;;;;;36.80;23.47;;;;;;;20.73;67.58;100145.11;1679439;82;21646;-86
2021/05/28 08:02:05;;;;;;;;;;;;;;;20.87;67.80;100145.45;1670743;83;21172;-85
2021/05/28 08:04:33;;;;;;;26.90;21.17;;;;;;;20.94;68.70;100141.98;1662213;84;20186;-87
2021/05/28 08:07:03;;;;;;;30.12;21.73;;;;;;;20.96;66.47;100149.31;1670425;83;21066;-83
2021/05/28 08:09:29;;;;;;;30.17;20.92;;;;;;;20.92;65.90;100148.20;1661078;83;21210;-84
2021/05/28 08:11:57;;;;;;;29.95;21.45;;;;;;;20.87;66.14;100146.81;1677321;84;21344;-85
2021/05/28 08:14:25;;;;;;;26.80;20.80;;;;;;;20.90;66.87;100150.36;1672285;83;21186;-87
2021/05/28 08:16:53;;;;;;;25.60;20.50;;;;;;;20.99;66.32;100148.25;1650293;83;21196;-87
2021/05/28 08:19:19;;;;;;;28.17;22.17;;;;;;;21.04;65.54;100141.22;1668067;83;21066;-87
2021/05/28 08:21:45;;;;;;;27.25;21.42;;;;;;;21.06;65.27;100141.26;1677734;83;21614;-86
2021/05/28 08:24:12;;;;;;;26.85;20.50;;;;;;;21.06;65.33;100139.06;1686835;83;21087;-87
2021/05/28 08:26:39;;;;;;;27.17;21.60;;;;;;;21.08;65.65;100129.61;1680805;82;21055;-85
2021/05/28 08:29:05;;;;;;;25.90;23.18;;;;;;;21.12;66.41;100132.61;1651990;84;21362;-85
2021/05/28 08:31:31;;;;;;;28.77;21.90;;;;;;;21.10;66.16;100132.88;1681171;83;21616;-83
2021/05/28 08:34:00;;;;;;;25.55;21.20;;;;;;;21.11;66.36;100127.71;1685804;82;21744;-84
2021/05/28 08:36:27;;;;;;;20.40;18.48;;;;;;;21.12;66.21;100121.23;1676492;83;21117;-86
2021/05/28 08:38:53;;;;;;;25.20;19.17;;;;;;;21.15;64.45;100127.48;1657153;84;22456;-85
2021/05/28 08:41:20;;;;;;;;;;;;;;;21.16;64.46;100119.61;1674695;83;21085;-84
2021/05/28 08:43:48;;;;;;;18.92;17.15;;;;;;;21.14;64.19;100116.36;1679388;83;20178;-85
2021/05/28 08:46:16;;;;;;;20.45;18.67;;;;;;;21.09;64.65;100115.52;1679993;82;21114;-86
2021/05/28 08:48:45;;;;;;;24.37;20.27;;;;;;;21.17;63.71;100107.70;1682605;82;21066;-84
2021/05/28 08:51:23;;;;;;;22.45;20.10;;;;;;;21.32;64.03;100106.13;1682557;83;21073;-86
2021/05/28 08:53:51;;;;;;;18.70;16.75;;;;;;;21.49;64.46;100103.23;1673180;82;21134;-86
2021/05/28 08:56:18;;;;;;;18.92;17.00;;;;;;;21.64;63.02;100101.10;1676029;83;21059;-85
2021/05/28 08:58:44;;;;;;;17.32;15.88;;;;;;;21.79;62.13;100097.06;1681343;82;21082;-86
2021/05/28 09:01:14;;;;;;;20.77;18.60;;;;;;;21.85;62.00;100087.03;1675928;84;20998;-85
2021/05/28 09:03:43;;;;;;;18.67;16.87;;;;;;;21.88;62.69;100092.73;1665807;84;21070;-83
2021/05/28 09:06:18;;;;;;;18.65;16.80;;;;;;;22.01;61.84;100097.38;1676965;83;21100;-84
2021/05/28 09:08:45;;;;;;;18.27;16.42;;;;;;;22.13;61.09;100093.84;1679409;83;21106;-82
2021/05/28 09:11:15;;;;;;;18.23;16.60;;;;;;;22.23;60.84;100087.63;1681058;83;21152;-81
2021/05/28 09:13:57;;;;;;;14.40;13.30;;;;;;;22.31;59.85;100096.05;1679763;83;21646;-85
2021/05/28 09:16:27;;;;;;;16.05;14.90;;;;;;;22.31;59.15;100090.61;1682789;82;21826;-84
2021/05/28 09:19:00;;;;;;;16.25;15.13;;;;;;;22.38;58.75;100092.23;1688438;83;21159;-84
2021/05/28 09:21:32;;;;;;;17.02;15.75;;;;;;;22.51;58.47;100090.34;1674308;82;21645;-83
2021/05/28 09:24:01;;;;;;;19.95;18.05;;;;;;;22.64;57.89;100089.78;1682370;83;21430;-85
2021/05/28 09:26:32;;;;;;;18.05;16.55;;;;;;;22.79;56.17;100092.17;1683649;83;21175;-82
2021/05/28 09:29:02;;;;;;;17.35;15.95;;;;;;;22.83;56.77;100085.09;1669524;82;21681;-83
2021/05/28 09:31:34;;;;;;;17.85;16.30;;;;;;;22.89;56.77;100089.44;1675458;82;21657;-82
2021/05/28 09:34:02;;;;;;;17.25;15.60;;;;;;;22.91;57.54;100089.98;1669156;82;21097;-83
2021/05/28 09:36:36;;;;;;;18.27;16.42;;;;;;;22.85;57.94;100085.63;1675012;82;21046;-83
2021/05/28 09:39:14;;;;;;;17.90;16.20;;;;;;;22.81;58.81;100088.11;1685776;82;21188;-84
2021/05/28 09:42:00;;;;;;;18.50;16.62;;;;;;;22.76;58.73;100081.32;1678813;82;21156;-84
2021/05/28 09:44:30;;;;;;;19.10;17.60;;;;;;;22.72;59.00;100072.09;1682260;82;21036;-84
2021/05/28 09:47:18;;;;;;;18.87;17.27;;;;;;;22.72;60.07;100070.74;1665342;83;21046;-83
2021/05/28 09:49:50;;;;;;;17.92;16.30;;;;;;;22.75;59.18;100072.89;1687147;82;21106;-82
2021/05/28 09:52:29;;;;;;;19.07;17.48;;;;;;;22.80;59.12;100066.64;1674889;82;21065;-84
2021/05/28 09:55:04;;;;;;;21.07;19.07;;;;;;;22.77;58.82;100059.84;1648255;84;21093;-84
2021/05/28 09:57:46;;;;;;;18.82;17.30;;;;;;;22.79;59.05;100060.92;1634161;85;21119;-86
2021/05/28 10:00:35;;;;;;;18.12;16.70;;;;;;;22.80;58.61;100063.92;1682933;83;21050;-85
2021/05/28 10:03:23;;;;;;;19.57;17.92;;;;;;;22.75;58.74;100064.73;1661682;83;21294;-86
2021/05/28 10:05:57;;;;;;;21.48;19.57;;;;;;;22.69;59.35;100053.07;1667405;83;21138;-84
2021/05/28 10:08:27;;;;;;;21.02;19.12;;;;;;;22.67;59.32;100047.66;1680989;82;22207;-85
2021/05/28 10:10:56;;;;;;;20.37;18.27;;;;;;;22.68;60.10;100046.02;1680095;82;21195;-83
2021/05/28 10:13:27;;;;;;;18.25;16.60;;;;;;;22.68;59.56;100044.67;1683428;82;21066;-85
2021/05/28 10:15:56;;;;;;;19.00;17.50;;;;;;;22.70;58.65;100045.20;1681083;83;21154;-85
2021/05/28 10:18:23;;;;;;;18.10;16.57;;;;;;;22.70;58.44;100039.77;1669952;84;21674;-86
2021/05/28 10:20:57;;;;;;;17.52;16.23;;;;;;;22.77;58.19;100042.73;1670454;82;21069;-84
2021/05/28 10:23:24;;;;;;;19.50;18.02;;;;;;;22.86;57.70;100043.79;1673819;83;21102;-85
2021/05/28 10:25:55;;;;;;;19.87;18.27;;;;;;;22.85;57.66;100038.91;1685288;83;21975;-84
2021/05/28 10:28:29;;;;;;;18.02;16.62;;;;;;;22.75;57.63;100030.78;1663113;83;21205;-85
2021/05/28 10:30:56;;;;;;;19.17;17.52;;;;;;;22.69;57.60;100031.34;1658493;84;21086;-84
2021/05/28 10:33:26;;;;;;;19.48;17.75;;;;;;;22.69;58.14;100024.55;1648254;85;21574;-84
2021/05/28 10:38:41;;;;;;;17.85;16.30;;;;;;;22.78;57.81;100032.14;1762558;79;22953;-87
2021/05/28 10:41:18;;;;;;;19.07;17.27;;;;;;;22.64;58.18;100027.82;1725956;80;21072;-84
2021/05/28 10:43:57;;;;;;;18.95;17.20;;;;;;;22.50;58.34;100038.46;1739889;80;21111;-85
2021/05/28 10:46:24;;;;;;;18.05;16.75;;;;;;;22.43;58.35;100028.42;1683696;80;21066;-84
2021/05/28 10:49:06;;;;;;;17.52;16.40;;;;;;;22.39;58.33;100025.44;1679529;83;21850;-87
2021/05/28 10:51:38;;;;;;;17.10;15.38;;;;;;;22.41;58.07;100010.23;1691090;83;21088;-83
2021/05/28 10:54:21;;;;;;;15.98;14.90;;;;;;;22.46;57.75;100006.96;1681939;83;21130;-86
2021/05/28 10:56:47;;;;;;;16.87;15.72;;;;;;;22.53;57.90;100008.05;1669330;83;21089;-84
2021/05/28 10:59:17;;;;;;;16.23;15.23;;;;;;;22.62;57.83;100007.75;1692526;83;21604;-85
2021/05/28 11:01:57;;;;;;;15.75;14.68;;;;;;;22.72;56.89;100012.33;1673359;83;20988;-85
2021/05/28 11:04:32;;;;;;;17.05;15.80;;;;;;;22.74;56.82;100000.08;1668511;84;21157;-86
2021/05/28 11:07:05;;;;;;;13.83;12.93;;;;;;;22.79;56.55;100008.75;1670867;84;21054;-84
2021/05/28 11:09:50;;;;;;;15.63;14.15;;;;;;;22.83;56.45;99998.14;1655189;84;21142;-85
2021/05/28 11:12:43;;;;;;;16.45;15.05;;;;;;;22.85;56.47;99991.36;1680165;81;21042;-83
2021/05/28 11:15:16;;;;;;;17.05;15.65;;;;;;;22.86;57.20;99978.02;1658177;85;21258;-82
2021/05/28 11:18:04;;;;;;;17.20;15.95;;;;;;;22.81;57.44;99973.16;1688357;84;21711;-84
2021/05/28 11:20:42;;;;;;;16.90;15.65;;;;;;;22.81;58.11;99970.44;1685722;83;21036;-85
2021/05/28 11:23:14;;;;;;;15.23;14.13;;;;;;;22.80;57.65;99966.11;1682571;82;21047;-84
2021/05/28 11:25:51;;;;;;;16.32;15.18;;;;;;;22.77;57.23;99966.10;1690079;83;21098;-84
2021/05/28 11:28:19;;;;;;;15.80;14.43;;;;;;;22.71;57.11;99956.36;1683481;83;21087;-83
2021/05/28 11:30:52;;;;;;;15.58;14.45;;;;;;;22.65;57.11;99954.77;1689706;83;21205;-83
2021/05/28 11:33:40;;;;;;;14.47;13.50;;;;;;;22.67;57.26;99958.02;1677167;83;21612;-83